createdAt,value
2023-04-14T00:00:42.524Z,12.35
2023-04-14T00:03:24.162Z,12.33
2023-04-14T00:05:58.223Z,12.32
2023-04-14T00:08:32.036Z,12.31
2023-04-14T00:11:06.021Z,12.27
2023-04-14T00:13:39.438Z,12.25
2023-04-14T00:16:13.287Z,12.23
2023-04-14T00:18:46.901Z,12.24
2023-04-14T00:21:20.562Z,12.25
2023-04-14T00:23:54.598Z,12.26
2023-04-14T00:26:28.254Z,12.29
2023-04-14T00:29:02.426Z,12.28
2023-04-14T00:31:35.967Z,12.25
2023-04-14T00:34:09.603Z,12.23
2023-04-14T00:36:43.861Z,12.20
2023-04-14T00:39:17.133Z,12.19
2023-04-14T00:41:50.767Z,12.19
2023-04-14T00:44:25.764Z,12.19
2023-04-14T00:47:00.935Z,12.18
2023-04-14T00:49:35.170Z,12.18
2023-04-14T00:52:09.118Z,12.15
2023-04-14T00:54:42.962Z,12.13
2023-04-14T00:57:17.173Z,12.10
2023-04-14T00:59:50.940Z,12.07
2023-04-14T01:02:25.410Z,12.05
2023-04-14T01:04:59.355Z,12.03
2023-04-14T01:07:33.565Z,12.02
2023-04-14T01:10:09.920Z,11.98
2023-04-14T01:13:07.517Z,11.92
2023-04-14T01:15:45.376Z,11.89
2023-04-14T01:18:27.479Z,11.86
2023-04-14T01:21:10.923Z,11.83
2023-04-14T01:23:56.334Z,11.81
2023-04-14T01:26:35.175Z,11.80
2023-04-14T01:29:37.014Z,11.78
2023-04-14T01:32:13.225Z,11.78
2023-04-14T01:34:52.531Z,11.76
2023-04-14T01:37:34.699Z,11.74
2023-04-14T01:40:13.007Z,11.72
2023-04-14T01:42:50.229Z,11.70
2023-04-14T01:45:28.241Z,11.68
2023-04-14T01:48:03.312Z,11.65
2023-04-14T01:50:38.897Z,11.67
2023-04-14T01:53:14.833Z,11.61
2023-04-14T01:55:50.688Z,11.60
2023-04-14T01:58:25.818Z,11.59
2023-04-14T02:01:00.558Z,11.58
2023-04-14T02:03:35.749Z,11.57
2023-04-14T02:06:12.530Z,11.53
2023-04-14T02:08:47.472Z,11.49
2023-04-14T02:11:22.223Z,11.47
2023-04-14T02:13:57.474Z,11.47
2023-04-14T02:16:32.900Z,11.46
2023-04-14T02:19:07.722Z,11.45
2023-04-14T02:21:44.200Z,11.43
2023-04-14T02:24:18.574Z,11.40
2023-04-14T02:27:01.804Z,11.38
2023-04-14T02:29:37.823Z,11.34
2023-04-14T02:32:19.289Z,11.29
2023-04-14T02:35:03.019Z,11.27
2023-04-14T02:37:40.805Z,11.25
2023-04-14T02:40:17.609Z,11.23
2023-04-14T02:42:54.627Z,11.20
2023-04-14T02:45:33.745Z,11.20
2023-04-14T02:48:13.292Z,11.20
2023-04-14T02:50:50.805Z,11.20
2023-04-14T02:53:28.191Z,11.19
2023-04-14T02:56:12.350Z,11.15
2023-04-14T02:58:48.560Z,11.12
2023-04-14T03:01:23.019Z,11.11
2023-04-14T03:03:58.219Z,11.11
2023-04-14T03:06:33.565Z,11.11
2023-04-14T03:09:08.883Z,11.12
2023-04-14T03:11:46.004Z,11.12
2023-04-14T03:14:22.254Z,11.10
2023-04-14T03:16:57.709Z,11.07
2023-04-14T03:19:34.300Z,11.05
2023-04-14T03:22:09.956Z,11.03
2023-04-14T03:24:46.179Z,11.00
2023-04-14T03:27:26.606Z,10.98
2023-04-14T03:30:07.525Z,10.96
2023-04-14T03:32:45.111Z,10.92
2023-04-14T03:35:22.330Z,10.88
2023-04-14T03:38:00.180Z,10.86
2023-04-14T03:40:38.770Z,10.85
2023-04-14T03:43:15.956Z,10.84
2023-04-14T03:45:50.520Z,10.84
2023-04-14T03:48:30.187Z,10.83
2023-04-14T03:51:07.227Z,10.80
2023-04-14T03:53:45.276Z,10.77
2023-04-14T03:56:19.526Z,10.77
2023-04-14T03:58:55.686Z,10.79
2023-04-14T04:01:30.429Z,10.81
2023-04-14T04:04:07.340Z,10.82
2023-04-14T04:06:42.338Z,10.84
2023-04-14T04:09:18.327Z,10.84
2023-04-14T04:11:54.142Z,10.85
2023-04-14T04:14:30.355Z,10.86
2023-04-14T04:17:08.800Z,10.89
2023-04-14T04:19:44.438Z,10.93
2023-04-14T04:22:22.608Z,10.97
2023-04-14T04:24:57.785Z,11.00
2023-04-14T04:27:35.807Z,11.01
2023-04-14T04:30:21.698Z,11.06
2023-04-14T04:32:55.935Z,11.20
2023-04-14T04:35:32.023Z,11.36
2023-04-14T04:38:06.281Z,11.47
2023-04-14T04:40:43.625Z,11.58
2023-04-14T04:43:22.564Z,11.66
2023-04-14T04:46:10.603Z,11.70
2023-04-14T04:48:44.331Z,11.74
2023-04-14T04:51:18.370Z,11.78
2023-04-14T04:53:52.444Z,11.79
2023-04-14T04:56:26.583Z,11.80
2023-04-14T04:59:01.060Z,11.82
2023-04-14T05:01:34.923Z,11.90
2023-04-14T05:04:08.822Z,11.98
2023-04-14T05:06:42.382Z,11.98
2023-04-14T05:09:15.766Z,11.97
2023-04-14T05:11:49.566Z,11.99
2023-04-14T05:14:23.674Z,12.03
2023-04-14T05:16:58.588Z,12.10
2023-04-14T05:19:32.439Z,12.10
2023-04-14T05:22:06.249Z,12.15
2023-04-14T05:24:39.753Z,12.19
2023-04-14T05:27:14.835Z,12.24
2023-04-14T05:29:48.958Z,12.25
2023-04-14T05:32:22.932Z,12.30
2023-04-14T05:34:58.161Z,12.34
2023-04-14T05:37:31.701Z,12.33
2023-04-14T05:40:05.497Z,12.30
2023-04-14T05:42:41.145Z,12.31
2023-04-14T05:45:15.444Z,12.34
2023-04-14T05:47:49.109Z,12.41
2023-04-14T05:50:23.366Z,12.51
2023-04-14T05:52:56.714Z,12.67
2023-04-14T05:55:30.820Z,12.86
2023-04-14T05:58:04.504Z,13.08
2023-04-14T06:00:38.292Z,13.29
2023-04-14T06:03:12.073Z,13.50
2023-04-14T06:05:48.564Z,13.72
2023-04-14T06:08:22.280Z,14.05
2023-04-14T06:10:56.084Z,14.52
2023-04-14T06:13:32.040Z,15.01
2023-04-14T06:16:09.110Z,15.65
2023-04-14T06:18:42.884Z,16.43
2023-04-14T06:21:16.436Z,16.87
2023-04-14T06:23:49.773Z,17.40
2023-04-14T06:26:23.178Z,17.80
2023-04-14T06:28:57.972Z,18.16
2023-04-14T06:31:31.478Z,18.41
2023-04-14T06:34:05.281Z,19.21
2023-04-14T06:36:39.314Z,20.10
2023-04-14T06:39:14.662Z,20.89
2023-04-14T06:41:48.461Z,21.69
2023-04-14T06:44:21.964Z,21.71
2023-04-14T06:46:57.156Z,22.02
2023-04-14T06:49:30.992Z,22.33
2023-04-14T06:52:04.723Z,22.84
2023-04-14T06:54:38.932Z,23.35
2023-04-14T06:57:12.485Z,24.18
2023-04-14T06:59:46.973Z,25.54
2023-04-14T07:02:20.931Z,27.04
2023-04-14T07:04:54.783Z,28.59
2023-04-14T07:07:28.841Z,30.12
2023-04-14T07:10:03.009Z,31.50
2023-04-14T07:12:36.754Z,32.23
2023-04-14T07:15:11.957Z,32.10
2023-04-14T07:17:46.018Z,32.83
2023-04-14T07:20:20.194Z,33.76
2023-04-14T07:22:54.197Z,34.65
2023-04-14T07:25:27.810Z,35.31
2023-04-14T07:28:03.486Z,36.07
2023-04-14T07:30:37.701Z,36.62
2023-04-14T07:33:11.309Z,36.33
2023-04-14T07:35:54.793Z,36.00
2023-04-14T07:38:35.908Z,36.39
2023-04-14T07:41:09.951Z,37.04
2023-04-14T07:43:43.679Z,37.67
2023-04-14T07:46:17.441Z,38.12
2023-04-14T07:48:51.085Z,37.65
2023-04-14T07:51:24.526Z,36.80
2023-04-14T07:53:58.158Z,36.85
2023-04-14T07:56:31.749Z,36.97
2023-04-14T07:59:05.643Z,37.14
2023-04-14T08:01:39.817Z,37.62
2023-04-14T08:04:13.801Z,38.39
2023-04-14T08:06:47.601Z,39.05
2023-04-14T08:09:21.051Z,39.83
2023-04-14T08:11:54.824Z,40.54
2023-04-14T08:14:28.847Z,41.10
2023-04-14T08:17:02.474Z,41.54
2023-04-14T08:19:36.140Z,41.90
2023-04-14T08:22:10.116Z,41.94
2023-04-14T08:24:44.203Z,42.24
2023-04-14T08:27:18.137Z,42.23
2023-04-14T08:29:52.455Z,41.67
2023-04-14T08:32:28.616Z,41.06
2023-04-14T08:35:39.046Z,39.83
2023-04-14T08:37:57.411Z,37.83
2023-04-14T08:40:37.906Z,36.07
2023-04-14T08:43:13.899Z,34.62
2023-04-14T08:45:51.750Z,33.28
2023-04-14T08:48:30.946Z,32.30
2023-04-14T08:51:15.933Z,31.49
2023-04-14T08:53:53.075Z,30.70
2023-04-14T08:56:32.592Z,29.84
2023-04-14T08:59:06.434Z,29.08
2023-04-14T09:01:40.915Z,28.53
2023-04-14T09:04:15.809Z,28.12
2023-04-14T09:06:49.436Z,27.84
2023-04-14T09:09:23.405Z,27.88
2023-04-14T09:11:56.720Z,28.08
2023-04-14T09:14:31.517Z,28.68
2023-04-14T09:17:05.350Z,29.50
2023-04-14T09:20:35.322Z,30.13
2023-04-14T09:22:33.791Z,29.91
2023-04-14T09:25:08.995Z,29.65
2023-04-14T09:27:42.679Z,29.31
2023-04-14T09:30:17.996Z,29.86
2023-04-14T09:32:55.333Z,29.90
2023-04-14T09:35:47.789Z,29.33
2023-04-14T09:38:36.118Z,28.63
2023-04-14T09:41:10.449Z,27.91
2023-04-14T09:43:44.329Z,27.42
2023-04-14T09:46:18.237Z,27.06
2023-04-14T09:48:56.922Z,27.60
2023-04-14T09:51:33.742Z,28.97
2023-04-14T09:54:07.811Z,30.29
2023-04-14T09:56:47.434Z,31.44
2023-04-14T09:59:34.463Z,32.18
2023-04-14T10:02:10.813Z,33.27
2023-04-14T10:04:45.245Z,34.30
2023-04-14T10:07:22.635Z,34.50
2023-04-14T10:09:56.556Z,34.74
2023-04-14T10:12:30.325Z,34.76
2023-04-14T10:15:04.058Z,34.77
2023-04-14T10:17:38.622Z,34.83
2023-04-14T10:20:13.494Z,35.20
2023-04-14T10:22:48.422Z,34.55
2023-04-14T10:25:22.469Z,33.87
2023-04-14T10:27:56.771Z,33.25
2023-04-14T10:30:30.574Z,32.53
2023-04-14T10:33:04.418Z,31.54
2023-04-14T10:35:44.629Z,30.54
2023-04-14T10:38:18.050Z,29.58
2023-04-14T10:40:57.477Z,28.90
2023-04-14T10:43:33.265Z,28.41
2023-04-14T10:46:08.769Z,27.69
2023-04-14T10:48:47.998Z,27.12
2023-04-14T10:51:21.910Z,26.87
2023-04-14T10:53:58.394Z,27.51
2023-04-14T10:56:31.989Z,28.73
2023-04-14T10:59:06.305Z,29.01
2023-04-14T11:01:42.482Z,28.75
2023-04-14T11:04:23.751Z,28.43
2023-04-14T11:06:59.257Z,27.57
2023-04-14T11:09:39.314Z,26.55
2023-04-14T11:15:14.859Z,26.14
2023-04-14T11:17:48.425Z,26.41
2023-04-14T11:20:24.078Z,27.07
2023-04-14T11:22:59.293Z,28.54
2023-04-14T11:25:34.034Z,29.04
2023-04-14T11:28:08.210Z,28.75
2023-04-14T11:30:45.601Z,29.17
2023-04-14T11:33:21.847Z,30.75
2023-04-14T11:35:55.725Z,32.13
2023-04-14T11:38:29.712Z,32.51
2023-04-14T11:41:05.473Z,31.79
2023-04-14T11:43:47.283Z,31.75
2023-04-14T11:46:23.149Z,32.29
2023-04-14T11:48:59.824Z,33.66
2023-04-14T11:51:34.729Z,33.87
2023-04-14T11:54:08.177Z,32.81
2023-04-14T11:56:42.122Z,32.26
2023-04-14T11:59:15.917Z,31.86
2023-04-14T12:01:53.703Z,31.14
2023-04-14T12:04:28.787Z,30.31
2023-04-14T12:07:02.599Z,29.88
2023-04-14T12:09:36.414Z,29.53
2023-04-14T12:12:16.942Z,29.75
2023-04-14T12:14:51.960Z,30.20
2023-04-14T12:17:25.904Z,30.91
2023-04-14T12:19:59.446Z,31.12
2023-04-14T12:22:33.171Z,31.40
2023-04-14T12:25:14.475Z,31.94
2023-04-14T12:27:57.103Z,31.80
2023-04-14T12:30:30.866Z,31.86
2023-04-14T12:33:11.690Z,32.52
2023-04-14T12:35:45.337Z,32.75
2023-04-14T12:38:19.370Z,32.82
2023-04-14T12:40:53.333Z,32.42
2023-04-14T12:43:34.258Z,32.34
2023-04-14T12:46:08.644Z,32.74
2023-04-14T12:48:46.416Z,33.00
2023-04-14T12:51:21.449Z,32.90
2023-04-14T12:54:09.247Z,32.60
2023-04-14T12:56:44.863Z,32.73
2023-04-14T12:59:18.172Z,32.15
2023-04-14T13:01:52.098Z,31.88
2023-04-14T13:04:25.837Z,32.28
2023-04-14T13:06:59.417Z,32.47
2023-04-14T13:09:33.348Z,32.46
2023-04-14T13:12:07.464Z,32.06
2023-04-14T13:14:41.061Z,31.50
2023-04-14T13:17:14.860Z,31.06
2023-04-14T13:19:48.452Z,30.12
2023-04-14T13:22:22.264Z,28.81
2023-04-14T13:24:57.125Z,27.61
2023-04-14T13:27:31.978Z,26.83
2023-04-14T13:30:06.079Z,26.29
2023-04-14T13:32:39.794Z,25.87
2023-04-14T13:35:14.776Z,25.21
2023-04-14T13:37:48.710Z,24.55
2023-04-14T13:40:21.812Z,23.91
2023-04-14T13:42:55.845Z,23.43
2023-04-14T13:45:30.553Z,23.08
2023-04-14T13:48:03.955Z,22.77
2023-04-14T13:50:37.983Z,22.42
2023-04-14T13:53:12.720Z,22.08
2023-04-14T13:55:46.584Z,21.95
2023-04-14T13:58:20.414Z,21.98
2023-04-14T14:00:55.624Z,22.06
2023-04-14T14:03:31.544Z,21.99
2023-04-14T14:06:06.383Z,21.89
2023-04-14T14:08:39.798Z,21.79
2023-04-14T14:11:14.357Z,21.55
2023-04-14T14:13:48.089Z,21.26
2023-04-14T14:16:36.200Z,21.10
2023-04-14T14:19:15.762Z,21.06
2023-04-14T14:21:50.769Z,21.12
2023-04-14T14:24:24.602Z,21.16
2023-04-14T14:26:58.201Z,21.07
2023-04-14T14:29:31.717Z,21.05
2023-04-14T14:32:05.911Z,21.02
2023-04-14T14:34:40.503Z,20.90
2023-04-14T14:37:14.403Z,20.82
2023-04-14T14:39:49.032Z,20.84
2023-04-14T14:42:23.775Z,20.90
2023-04-14T14:44:57.904Z,20.95
2023-04-14T14:47:32.195Z,20.92
2023-04-14T14:50:08.676Z,20.84
2023-04-14T14:52:43.628Z,20.73
2023-04-14T14:55:17.477Z,20.51
2023-04-14T14:57:51.341Z,20.23
2023-04-14T15:00:25.228Z,20.09
2023-04-14T15:02:58.773Z,20.06
2023-04-14T15:05:33.218Z,20.03
2023-04-14T15:08:07.632Z,19.97
2023-04-14T15:10:42.141Z,19.94
2023-04-14T15:13:16.186Z,19.88
2023-04-14T15:15:50.558Z,19.84
2023-04-14T15:18:24.333Z,19.87
2023-04-14T15:20:58.542Z,19.83
2023-04-14T15:23:35.822Z,19.72
2023-04-14T15:26:09.546Z,19.61
2023-04-14T15:28:42.912Z,19.44
2023-04-14T15:31:16.507Z,19.30
2023-04-14T15:33:50.544Z,19.23
2023-04-14T15:36:23.913Z,19.16
2023-04-14T15:38:57.271Z,19.06
2023-04-14T15:41:31.127Z,18.96
2023-04-14T15:44:04.940Z,18.97
2023-04-14T15:46:38.459Z,18.96
2023-04-14T15:49:12.356Z,18.86
2023-04-14T15:51:45.474Z,18.71
2023-04-14T15:54:19.203Z,18.58
2023-04-14T15:56:54.951Z,18.43
2023-04-14T15:59:29.195Z,18.30
2023-04-14T16:02:03.925Z,18.24
2023-04-14T16:04:38.315Z,18.20
2023-04-14T16:07:12.457Z,18.11
2023-04-14T16:09:46.840Z,18.02
2023-04-14T16:12:20.802Z,17.95
2023-04-14T16:14:54.941Z,17.90
2023-04-14T16:17:28.770Z,17.82
2023-04-14T16:20:03.752Z,17.69
2023-04-14T16:22:37.572Z,17.59
2023-04-14T16:25:12.126Z,17.53
2023-04-14T16:27:45.884Z,17.50
2023-04-14T16:30:19.820Z,17.48
2023-04-14T16:32:53.644Z,17.43
2023-04-14T16:35:27.488Z,17.38
2023-04-14T16:38:00.817Z,17.32
2023-04-14T16:40:34.875Z,17.29
2023-04-14T16:43:10.110Z,17.20
2023-04-14T16:45:43.910Z,17.10
2023-04-14T16:48:18.857Z,17.02
2023-04-14T16:50:54.392Z,16.93
2023-04-14T16:53:28.979Z,16.82
2023-04-14T16:56:08.084Z,16.76
2023-04-14T16:58:42.362Z,16.69
2023-04-14T17:01:17.332Z,16.61
2023-04-14T17:03:50.852Z,16.54
2023-04-14T17:06:25.224Z,16.48
2023-04-14T17:09:01.349Z,16.44
2023-04-14T17:11:35.099Z,16.37
2023-04-14T17:14:09.930Z,16.31
2023-04-14T17:16:44.491Z,16.24
2023-04-14T17:19:18.333Z,16.15
2023-04-14T17:21:54.502Z,16.06
2023-04-14T17:24:29.958Z,15.95
2023-04-14T17:27:04.136Z,15.81
2023-04-14T17:29:37.734Z,15.71
2023-04-14T17:32:13.019Z,15.60
2023-04-14T17:34:56.795Z,15.53
2023-04-14T17:37:32.337Z,15.48
2023-04-14T17:40:12.906Z,15.41
2023-04-14T17:42:49.091Z,15.33
2023-04-14T17:45:24.836Z,15.26
2023-04-14T17:48:00.481Z,15.19
2023-04-14T17:50:36.944Z,15.11
2023-04-14T17:53:14.899Z,15.05
2023-04-14T17:55:49.955Z,15.00
2023-04-14T17:58:25.702Z,14.94
2023-04-14T18:01:08.890Z,14.88
2023-04-14T18:03:49.361Z,14.83
2023-04-14T18:06:25.694Z,14.79
2023-04-14T18:09:00.392Z,14.76
2023-04-14T18:11:35.416Z,14.71
2023-04-14T18:14:09.930Z,14.66
2023-04-14T18:16:46.127Z,14.61
2023-04-14T18:19:23.150Z,14.54
2023-04-14T18:22:00.592Z,14.48
2023-04-14T18:29:57.348Z,14.37
2023-04-14T18:32:33.044Z,14.37
2023-04-14T18:35:09.421Z,14.41
2023-04-14T18:37:47.534Z,14.41
2023-04-14T18:40:24.852Z,14.40
2023-04-14T18:43:02.310Z,14.37
2023-04-14T18:45:38.188Z,14.33
2023-04-14T18:48:13.421Z,14.31
2023-04-14T18:50:58.974Z,14.28
2023-04-14T18:53:34.917Z,14.22
2023-04-14T18:56:10.793Z,14.15
2023-04-14T18:58:48.707Z,14.11
2023-04-14T19:01:29.738Z,14.08
2023-04-14T19:04:07.404Z,14.04
2023-04-14T19:06:46.094Z,14.01
2023-04-14T19:09:27.875Z,13.98
2023-04-14T19:12:04.463Z,13.97
2023-04-14T19:14:46.512Z,13.98
2023-04-14T19:17:22.732Z,14.01
2023-04-14T19:19:59.809Z,14.06
2023-04-14T19:22:36.782Z,14.09
2023-04-14T19:25:14.177Z,14.10
2023-04-14T19:27:51.313Z,14.13
2023-04-14T19:30:27.217Z,14.14
2023-04-14T19:33:14.589Z,14.12
2023-04-14T19:35:51.289Z,14.05
2023-04-14T19:38:30.776Z,13.99
2023-04-14T19:41:07.420Z,13.93
2023-04-14T19:43:42.253Z,13.89
2023-04-14T19:46:19.241Z,13.83
2023-04-14T19:48:55.403Z,13.77
2023-04-14T19:51:33.821Z,13.73
2023-04-14T19:54:09.831Z,13.66
2023-04-14T19:56:49.760Z,13.59
2023-04-14T19:59:24.844Z,13.55
2023-04-14T20:02:01.913Z,13.51
2023-04-14T20:04:38.438Z,13.50
2023-04-14T20:07:16.571Z,13.44
2023-04-14T20:09:53.785Z,13.40
2023-04-14T20:12:30.088Z,13.35
2023-04-14T20:15:06.148Z,13.33
2023-04-14T20:17:42.458Z,13.29
2023-04-14T20:20:19.146Z,13.26
2023-04-14T20:22:57.488Z,13.21
2023-04-14T20:25:34.748Z,13.18
2023-04-14T20:28:10.517Z,13.16
2023-04-14T20:30:48.881Z,13.18
2023-04-14T20:33:24.794Z,13.21
2023-04-14T20:36:03.038Z,13.22
2023-04-14T20:38:38.204Z,13.22
2023-04-14T20:41:12.141Z,13.23
2023-04-14T20:43:48.571Z,13.23
2023-04-14T20:46:26.434Z,13.22
2023-04-14T20:49:01.826Z,13.19
2023-04-14T20:51:35.810Z,13.15
2023-04-14T20:54:10.841Z,13.14
2023-04-14T20:56:45.368Z,13.12
2023-04-14T20:59:19.251Z,13.10
2023-04-14T21:01:53.662Z,13.09
2023-04-14T21:04:28.280Z,13.08
2023-04-14T21:07:02.458Z,13.08
2023-04-14T21:09:36.803Z,13.06
2023-04-14T21:12:15.258Z,13.03
2023-04-14T21:15:28.178Z,12.99
2023-04-14T21:17:44.925Z,12.97
2023-04-14T21:20:18.521Z,12.96
2023-04-14T21:22:52.661Z,12.96
2023-04-14T21:25:26.201Z,12.97
2023-04-14T21:27:59.789Z,12.98
2023-04-14T21:30:34.304Z,12.97
2023-04-14T21:33:09.011Z,12.97
2023-04-14T21:35:43.660Z,12.97
2023-04-14T21:38:17.767Z,12.93
2023-04-14T21:40:51.880Z,12.89
2023-04-14T21:43:25.782Z,12.86
2023-04-14T21:45:59.998Z,12.83
2023-04-14T21:48:33.522Z,12.83
2023-04-14T21:51:08.018Z,12.83
2023-04-14T21:53:42.430Z,12.84
2023-04-14T21:56:16.378Z,12.87
2023-04-14T21:58:50.594Z,12.90
2023-04-14T22:01:24.189Z,12.91
2023-04-14T22:03:57.992Z,12.91
2023-04-14T22:06:32.112Z,12.90
2023-04-14T22:09:06.345Z,12.90
2023-04-14T22:11:40.078Z,12.90
2023-04-14T22:14:13.938Z,12.93
2023-04-14T22:16:47.532Z,12.96
2023-04-14T22:19:21.217Z,12.99
2023-04-14T22:21:54.912Z,12.97
2023-04-14T22:24:28.919Z,12.94
2023-04-14T22:27:02.225Z,12.93
2023-04-14T22:29:36.162Z,12.95
2023-04-14T22:32:09.762Z,12.94
2023-04-14T22:34:43.695Z,12.92
2023-04-14T22:37:17.372Z,12.92
2023-04-14T22:39:50.768Z,12.94
2023-04-14T22:42:24.002Z,12.97
2023-04-14T22:44:57.778Z,13.00
2023-04-14T22:47:31.127Z,13.02
2023-04-14T22:50:06.196Z,13.02
2023-04-14T22:52:39.996Z,13.01
2023-04-14T22:55:13.574Z,13.02
2023-04-14T22:57:47.347Z,13.01
2023-04-14T23:00:21.642Z,12.99
2023-04-14T23:02:56.033Z,12.98
2023-04-14T23:05:29.911Z,12.97
2023-04-14T23:08:03.378Z,12.97
2023-04-14T23:10:36.942Z,12.96
2023-04-14T23:13:10.320Z,12.97
2023-04-14T23:15:43.972Z,12.99
2023-04-14T23:18:17.736Z,12.96
2023-04-14T23:20:50.939Z,12.93
2023-04-14T23:23:24.369Z,12.93
2023-04-14T23:25:58.536Z,12.95
2023-04-14T23:28:31.929Z,12.96
2023-04-14T23:31:05.512Z,12.97
2023-04-14T23:33:39.583Z,12.98
2023-04-14T23:36:13.790Z,12.97
2023-04-14T23:38:47.380Z,12.93
2023-04-14T23:41:22.208Z,12.90
2023-04-14T23:43:55.482Z,12.91
2023-04-14T23:46:28.696Z,12.95
2023-04-14T23:49:03.303Z,12.98
2023-04-14T23:51:56.118Z,13.01
2023-04-14T23:54:31.352Z,12.97
2023-04-14T23:57:04.867Z,12.93
2023-04-14T23:59:38.862Z,12.92
